createdAt,value
2023-02-19T00:05:44.715Z,23.46
2023-02-19T00:15:49.916Z,23.48
2023-02-19T00:25:55.446Z,23.37
2023-02-19T00:36:00.538Z,23.37
2023-02-19T00:46:05.665Z,23.39
2023-02-19T00:56:10.689Z,23.36
2023-02-19T01:06:16.156Z,23.30
2023-02-19T01:16:22.612Z,23.37
2023-02-19T01:26:27.939Z,23.32
2023-02-19T01:36:33.472Z,23.28
2023-02-19T01:46:38.716Z,23.24
2023-02-19T01:56:44.106Z,23.23
2023-02-19T02:06:48.952Z,23.21
2023-02-19T02:16:54.172Z,23.23
2023-02-19T02:26:59.636Z,23.24
2023-02-19T02:37:04.915Z,23.27
2023-02-19T02:47:10.378Z,23.22
2023-02-19T02:57:15.446Z,23.20
2023-02-19T03:07:20.959Z,23.19
2023-02-19T03:17:26.266Z,23.20
2023-02-19T03:27:31.191Z,23.27
2023-02-19T03:37:36.506Z,23.28
2023-02-19T03:47:41.817Z,23.26
2023-02-19T03:57:47.096Z,23.19
2023-02-19T04:07:52.377Z,23.26
2023-02-19T04:17:57.203Z,23.19
2023-02-19T04:28:02.314Z,23.22
2023-02-19T04:38:07.479Z,23.16
2023-02-19T04:48:12.435Z,23.23
2023-02-19T04:58:17.611Z,23.20
2023-02-19T05:08:22.893Z,23.15
2023-02-19T05:18:28.090Z,23.16
2023-02-19T05:28:33.353Z,23.19
2023-02-19T05:38:38.340Z,23.20
2023-02-19T05:48:43.500Z,23.14
2023-02-19T05:58:48.803Z,23.15
2023-02-19T06:08:54.001Z,23.19
2023-02-19T06:18:59.114Z,23.12
2023-02-19T06:29:04.571Z,23.11
2023-02-19T06:39:09.913Z,23.12
2023-02-19T06:49:15.002Z,23.14
2023-02-19T06:59:20.180Z,23.19
2023-02-19T07:09:25.214Z,23.15
2023-02-19T07:19:30.469Z,23.12
2023-02-19T07:29:36.073Z,23.14
2023-02-19T07:39:40.801Z,23.12
2023-02-19T07:49:46.093Z,23.22
2023-02-19T07:59:50.974Z,23.16
2023-02-19T08:09:56.445Z,23.15
2023-02-19T08:20:02.034Z,23.24
2023-02-19T08:30:08.479Z,23.38
2023-02-19T08:40:14.437Z,23.33
2023-02-19T08:50:19.878Z,23.31
2023-02-19T09:00:25.440Z,23.44
2023-02-19T09:10:30.915Z,23.46
2023-02-19T09:20:36.307Z,23.49
2023-02-19T09:30:41.998Z,23.44
2023-02-19T09:40:47.536Z,23.46
2023-02-19T09:50:52.869Z,23.44
2023-02-19T10:00:57.784Z,23.46
2023-02-19T10:11:03.119Z,23.44
2023-02-19T10:21:09.472Z,23.51
2023-02-19T10:31:18.836Z,23.49
2023-02-19T10:34:07.541Z,23.46
2023-02-19T10:34:14.879Z,23.45
2023-02-19T10:44:16.921Z,23.48
2023-02-19T10:54:22.553Z,23.51
2023-02-19T11:04:28.156Z,23.52
2023-02-19T11:14:34.040Z,23.54
2023-02-19T11:24:39.633Z,23.63
2023-02-19T11:34:45.192Z,23.66
2023-02-19T11:44:50.598Z,23.70
2023-02-19T11:54:56.099Z,23.70
2023-02-19T12:05:01.397Z,23.78
2023-02-19T12:15:06.803Z,23.65
2023-02-19T12:25:13.283Z,23.62
2023-02-19T12:35:18.609Z,23.65
2023-02-19T12:46:45.693Z,23.74
2023-02-19T12:56:50.917Z,23.65
2023-02-19T13:06:56.309Z,23.67
2023-02-19T13:17:01.757Z,23.60
2023-02-19T13:27:07.504Z,23.59
2023-02-19T13:37:13.089Z,23.63
2023-02-19T13:47:19.012Z,23.61
2023-02-19T13:57:24.552Z,23.66
2023-02-19T14:07:29.783Z,23.68
2023-02-19T14:17:35.318Z,23.66
2023-02-19T14:27:41.145Z,23.73
2023-02-19T14:37:46.076Z,23.78
2023-02-19T14:47:51.243Z,23.70
2023-02-19T14:57:56.556Z,23.73
2023-02-19T15:08:02.449Z,24.09
2023-02-19T15:18:08.196Z,24.21
2023-02-19T15:28:13.600Z,24.23
2023-02-19T15:38:21.091Z,24.23
2023-02-19T15:48:26.781Z,24.24
2023-02-19T15:58:32.379Z,24.23
2023-02-19T16:08:38.277Z,24.22
2023-02-19T16:18:43.558Z,24.24
2023-02-19T16:28:48.931Z,24.23
2023-02-19T16:38:54.066Z,24.24
2023-02-19T16:48:59.475Z,24.24
2023-02-19T16:59:04.551Z,24.23
2023-02-19T17:09:10.595Z,24.24
2023-02-19T17:19:16.098Z,24.24
2023-02-19T17:29:21.410Z,24.25
2023-02-19T17:39:26.780Z,24.24
2023-02-19T17:49:32.182Z,24.24
2023-02-19T17:59:37.780Z,24.24
2023-02-19T18:09:43.299Z,24.25
2023-02-19T18:19:48.465Z,24.25
2023-02-19T18:29:54.146Z,24.24
2023-02-19T18:39:59.328Z,24.24
2023-02-19T18:50:04.863Z,24.25
2023-02-19T19:00:10.290Z,24.26
2023-02-19T19:10:15.696Z,24.27
2023-02-19T19:20:21.665Z,24.27
2023-02-19T19:30:26.795Z,24.28
2023-02-19T19:40:32.163Z,24.29
2023-02-19T19:50:37.406Z,24.29
2023-02-19T20:00:42.675Z,24.28
2023-02-19T20:10:47.972Z,24.28
2023-02-19T20:20:54.035Z,24.27
2023-02-19T20:30:59.548Z,24.28
2023-02-19T20:41:05.435Z,24.28
2023-02-19T20:51:10.845Z,24.30
2023-02-19T21:01:16.204Z,24.32
2023-02-19T21:11:21.595Z,24.23
2023-02-19T21:21:27.250Z,24.18
2023-02-19T21:31:32.852Z,24.15
2023-02-19T21:41:38.485Z,24.13
2023-02-19T21:51:44.281Z,24.13
2023-02-19T22:01:49.764Z,24.17
2023-02-19T22:11:55.444Z,24.19
2023-02-19T22:22:00.582Z,24.20
2023-02-19T22:32:06.618Z,24.17
2023-02-19T22:42:12.254Z,24.12
2023-02-19T22:52:18.120Z,24.12
2023-02-19T23:02:23.907Z,24.09
2023-02-19T23:12:29.358Z,24.04
2023-02-19T23:22:34.515Z,24.01
2023-02-19T23:32:40.383Z,23.97
2023-02-19T23:42:46.046Z,23.94
2023-02-19T23:52:51.205Z,23.92
